MAPA DE AEROPUERTO

INFORMACIÓN METAR y TAF


Deprecated: The each() function is deprecated. This message will be suppressed on further calls in /home/customer/www/clickair-va.com/public_html/VAM/vam/helpers/get_metar.php on line 20
METAR FOR SBRJ
ADDS - METARS form results

(1637 UTC 13 January 2023)
Data provider http://aviationweather.gov/metar/data/
 
METAR text: SBRJ 131618Z 15010KT 110V240 9999 FEW030 FEW035TCU 31/23 Q1008
Conditions at: SBRJ (SANTOS DUMONT/RI, BR) observed 1618 UTC 13 January 2023
Temperature: 31.0°C (88°F)
Dewpoint: 23.0°C (73°F) [RH = 63%]
Pressure (altimeter): 29.76 inches Hg (1008.0 mb)
Winds: from the SSE (150 degrees) at 12 MPH (10 knots; 5.1 m/s)
Visibility: 6 or more miles (10+ km)
Ceiling: at least 12,000 feet AGL
Clouds: few clouds at 3000 feet AGL
few clouds at 3500 feet AGL
Weather: no significant weather observed at this time

METAR text: SBRJ 131600Z 33009KT 290V020 9999 FEW030 FEW035TCU 35/22 Q1008
Conditions at: SBRJ (SANTOS DUMONT/RI, BR) observed 1600 UTC 13 January 2023
Temperature: 35.0°C (95°F)
Dewpoint: 22.0°C (72°F) [RH = 47%]
Pressure (altimeter): 29.76 inches Hg (1008.0 mb)
Winds: from the NNW (330 degrees) at 10 MPH (9 knots; 4.6 m/s)
Visibility: 6 or more miles (10+ km)
Ceiling: at least 12,000 feet AGL
Clouds: few clouds at 3000 feet AGL
few clouds at 3500 feet AGL
Weather: no significant weather observed at this time

Forecast for: SBRJ (SANTOS DUMONT/RI, BR)
Text: TAF SBRJ 131545Z 1318/1406 16006KT 9999 SCT020 TX30/1318Z TN24/1406Z
Forecast period: 1800 UTC 13 January 2023 to 0000 UTC 14 January 2023
Forecast type: FROM: standard forecast or significant change
Winds: from the SSE (160 degrees) at 7 MPH (6 knots; 3.1 m/s)
Visibility: 6 or more miles (10+ km)
Ceiling: at least 12,000 feet AGL
Clouds: scattered clouds at 2000 feet AGL
Weather: no significant weather forecast for this period
Text: TEMPO 1318/1324 18010KT 6000 TS BKN016 FEW030CB
Forecast period: 1800 UTC 13 January 2023 to 0000 UTC 14 January 2023
Forecast type: TEMPORARY: The following changes expected for less than half the time period
Winds: from the S (180 degrees) at 12 MPH (10 knots; 5.1 m/s)
Visibility: 4 miles (6 km)
Ceiling: 1600 feet AGL
Clouds: broken clouds at 1600 feet AGL
few clouds at 3000 feet AGL
Weather: TS  (thunderstorm)
Text: BECMG 1400/1402 32005KT RMK PGW
Forecast period: 0000 to 0600 UTC 14 January 2023
Forecast type: BECOMING: Conditions expected to become as follows by 0200 UTC 14 January 2023
Winds: from the NW (320 degrees) at 6 MPH (5 knots; 2.6 m/s)
Visibility: 6 or more miles (10+ km)
Ceiling: at least 12,000 feet AGL
Clouds: scattered clouds at 2000 feet AGL
Weather: no significant weather forecast for this period